sensor_id;sensor_type;location;lat;lon;timestamp;temperature;humidity
5041;DHT22;2539;52.568;13.364;2023-07-16T00:01:03;22.60;99.90
5041;DHT22;2539;52.568;13.364;2023-07-16T00:03:29;22.60;99.90
5041;DHT22;2539;52.568;13.364;2023-07-16T00:05:55;22.50;99.90
5041;DHT22;2539;52.568;13.364;2023-07-16T00:08:22;22.50;99.90
5041;DHT22;2539;52.568;13.364;2023-07-16T00:10:48;22.50;99.90
5041;DHT22;2539;52.568;13.364;2023-07-16T00:13:14;22.50;99.90
5041;DHT22;2539;52.568;13.364;2023-07-16T00:15:41;22.50;99.90
5041;DHT22;2539;52.568;13.364;2023-07-16T00:18:08;22.50;99.90
5041;DHT22;2539;52.568;13.364;2023-07-16T00:20:34;22.50;99.90
5041;DHT22;2539;52.568;13.364;2023-07-16T00:23:00;22.50;99.90
5041;DHT22;2539;52.568;13.364;2023-07-16T00:25:27;22.50;99.90
5041;DHT22;2539;52.568;13.364;2023-07-16T00:27:53;22.50;99.90
5041;DHT22;2539;52.568;13.364;2023-07-16T00:30:19;22.50;99.90
5041;DHT22;2539;52.568;13.364;2023-07-16T00:32:45;22.30;99.90
5041;DHT22;2539;52.568;13.364;2023-07-16T00:35:11;22.40;99.90
5041;DHT22;2539;52.568;13.364;2023-07-16T00:37:38;22.50;99.90
5041;DHT22;2539;52.568;13.364;2023-07-16T00:40:05;22.50;99.90
5041;DHT22;2539;52.568;13.364;2023-07-16T00:42:31;22.50;99.90
5041;DHT22;2539;52.568;13.364;2023-07-16T00:44:57;22.50;99.90
5041;DHT22;2539;52.568;13.364;2023-07-16T00:47:24;22.50;99.90
5041;DHT22;2539;52.568;13.364;2023-07-16T00:49:50;22.60;99.90
5041;DHT22;2539;52.568;13.364;2023-07-16T00:52:18;22.60;99.90
5041;DHT22;2539;52.568;13.364;2023-07-16T00:54:45;22.60;99.90
5041;DHT22;2539;52.568;13.364;2023-07-16T00:57:11;22.60;99.90
5041;DHT22;2539;52.568;13.364;2023-07-16T00:59:37;22.60;99.90
5041;DHT22;2539;52.568;13.364;2023-07-16T01:02:04;22.60;99.90
5041;DHT22;2539;52.568;13.364;2023-07-16T01:04:31;22.70;99.90
5041;DHT22;2539;52.568;13.364;2023-07-16T01:07:01;22.70;99.90
5041;DHT22;2539;52.568;13.364;2023-07-16T01:09:28;22.70;99.90
5041;DHT22;2539;52.568;13.364;2023-07-16T01:11:56;22.80;99.90
5041;DHT22;2539;52.568;13.364;2023-07-16T01:14:24;22.80;99.90
5041;DHT22;2539;52.568;13.364;2023-07-16T01:16:50;22.80;99.90
5041;DHT22;2539;52.568;13.364;2023-07-16T01:19:19;22.80;99.90
5041;DHT22;2539;52.568;13.364;2023-07-16T01:21:55;22.80;99.90
5041;DHT22;2539;52.568;13.364;2023-07-16T01:24:59;22.80;99.90
5041;DHT22;2539;52.568;13.364;2023-07-16T01:27:30;22.80;99.90
5041;DHT22;2539;52.568;13.364;2023-07-16T01:30:01;22.90;99.90
5041;DHT22;2539;52.568;13.364;2023-07-16T01:32:30;22.90;99.90
5041;DHT22;2539;52.568;13.364;2023-07-16T01:34:57;22.90;99.90
5041;DHT22;2539;52.568;13.364;2023-07-16T01:37:23;22.90;99.90
5041;DHT22;2539;52.568;13.364;2023-07-16T01:39:50;23.00;99.90
5041;DHT22;2539;52.568;13.364;2023-07-16T01:42:16;23.00;99.90
5041;DHT22;2539;52.568;13.364;2023-07-16T01:44:42;23.00;99.90
5041;DHT22;2539;52.568;13.364;2023-07-16T01:47:19;23.00;99.90
5041;DHT22;2539;52.568;13.364;2023-07-16T01:49:47;23.00;99.90
5041;DHT22;2539;52.568;13.364;2023-07-16T01:52:14;22.90;99.90
5041;DHT22;2539;52.568;13.364;2023-07-16T01:54:40;22.90;99.90
5041;DHT22;2539;52.568;13.364;2023-07-16T01:57:06;22.90;99.90
5041;DHT22;2539;52.568;13.364;2023-07-16T01:59:32;22.90;99.90
5041;DHT22;2539;52.568;13.364;2023-07-16T02:01:59;22.90;99.90
5041;DHT22;2539;52.568;13.364;2023-07-16T02:04:25;22.90;99.90
5041;DHT22;2539;52.568;13.364;2023-07-16T02:06:51;22.90;99.90
5041;DHT22;2539;52.568;13.364;2023-07-16T02:09:17;22.90;99.90
5041;DHT22;2539;52.568;13.364;2023-07-16T02:11:44;22.90;99.90
5041;DHT22;2539;52.568;13.364;2023-07-16T02:14:10;22.80;99.90
5041;DHT22;2539;52.568;13.364;2023-07-16T02:16:36;22.80;99.90
5041;DHT22;2539;52.568;13.364;2023-07-16T02:19:02;22.80;99.90
5041;DHT22;2539;52.568;13.364;2023-07-16T02:21:31;22.80;99.90
5041;DHT22;2539;52.568;13.364;2023-07-16T02:23:57;22.80;99.90
5041;DHT22;2539;52.568;13.364;2023-07-16T02:26:23;22.80;99.90
5041;DHT22;2539;52.568;13.364;2023-07-16T02:28:49;22.70;99.90
5041;DHT22;2539;52.568;13.364;2023-07-16T02:31:16;22.60;99.90
5041;DHT22;2539;52.568;13.364;2023-07-16T02:33:42;22.50;99.90
5041;DHT22;2539;52.568;13.364;2023-07-16T02:36:08;22.40;99.90
5041;DHT22;2539;52.568;13.364;2023-07-16T02:38:34;22.30;99.90
5041;DHT22;2539;52.568;13.364;2023-07-16T02:41:01;22.10;99.90
5041;DHT22;2539;52.568;13.364;2023-07-16T02:43:27;22.00;99.90
5041;DHT22;2539;52.568;13.364;2023-07-16T02:45:53;21.80;99.90
5041;DHT22;2539;52.568;13.364;2023-07-16T02:48:20;21.60;99.90
5041;DHT22;2539;52.568;13.364;2023-07-16T02:50:46;21.40;99.90
5041;DHT22;2539;52.568;13.364;2023-07-16T02:53:12;21.30;99.90
5041;DHT22;2539;52.568;13.364;2023-07-16T02:55:38;21.30;99.90
5041;DHT22;2539;52.568;13.364;2023-07-16T02:58:04;21.30;99.90
5041;DHT22;2539;52.568;13.364;2023-07-16T03:00:31;21.20;99.90
5041;DHT22;2539;52.568;13.364;2023-07-16T03:02:58;21.20;99.90
5041;DHT22;2539;52.568;13.364;2023-07-16T03:05:26;21.20;99.90
5041;DHT22;2539;52.568;13.364;2023-07-16T03:07:52;21.30;99.90
5041;DHT22;2539;52.568;13.364;2023-07-16T03:10:19;21.20;99.90
5041;DHT22;2539;52.568;13.364;2023-07-16T03:12:46;21.20;99.90
5041;DHT22;2539;52.568;13.364;2023-07-16T03:15:12;21.20;99.90
5041;DHT22;2539;52.568;13.364;2023-07-16T03:17:38;21.30;99.90
5041;DHT22;2539;52.568;13.364;2023-07-16T03:20:05;21.30;99.90
5041;DHT22;2539;52.568;13.364;2023-07-16T03:22:31;21.30;99.90
5041;DHT22;2539;52.568;13.364;2023-07-16T03:24:58;21.30;99.90
5041;DHT22;2539;52.568;13.364;2023-07-16T03:27:24;21.30;99.90
5041;DHT22;2539;52.568;13.364;2023-07-16T03:29:50;21.40;99.90
5041;DHT22;2539;52.568;13.364;2023-07-16T03:32:16;21.40;99.90
5041;DHT22;2539;52.568;13.364;2023-07-16T03:34:43;21.40;99.90
5041;DHT22;2539;52.568;13.364;2023-07-16T03:37:09;21.40;99.90
5041;DHT22;2539;52.568;13.364;2023-07-16T03:39:35;21.30;99.90
5041;DHT22;2539;52.568;13.364;2023-07-16T03:42:01;21.30;99.90
5041;DHT22;2539;52.568;13.364;2023-07-16T03:44:29;21.30;99.90
5041;DHT22;2539;52.568;13.364;2023-07-16T03:46:56;21.30;99.90
5041;DHT22;2539;52.568;13.364;2023-07-16T03:49:22;21.30;99.90
5041;DHT22;2539;52.568;13.364;2023-07-16T03:51:48;21.30;99.90
5041;DHT22;2539;52.568;13.364;2023-07-16T03:54:14;21.30;99.90
5041;DHT22;2539;52.568;13.364;2023-07-16T03:56:40;21.20;99.90
5041;DHT22;2539;52.568;13.364;2023-07-16T03:59:07;21.30;99.90
5041;DHT22;2539;52.568;13.364;2023-07-16T04:01:33;21.30;99.90
5041;DHT22;2539;52.568;13.364;2023-07-16T04:03:59;21.30;99.90
5041;DHT22;2539;52.568;13.364;2023-07-16T04:06:26;21.40;99.90
5041;DHT22;2539;52.568;13.364;2023-07-16T04:08:52;21.40;99.90
5041;DHT22;2539;52.568;13.364;2023-07-16T04:11:18;21.40;99.90
5041;DHT22;2539;52.568;13.364;2023-07-16T04:13:44;21.50;99.90
5041;DHT22;2539;52.568;13.364;2023-07-16T04:16:10;21.50;99.90
5041;DHT22;2539;52.568;13.364;2023-07-16T04:18:35;21.50;99.90
5041;DHT22;2539;52.568;13.364;2023-07-16T04:21:01;21.50;99.90
5041;DHT22;2539;52.568;13.364;2023-07-16T04:23:27;21.50;99.90
5041;DHT22;2539;52.568;13.364;2023-07-16T04:25:55;21.60;99.90
5041;DHT22;2539;52.568;13.364;2023-07-16T04:28:21;21.50;99.90
5041;DHT22;2539;52.568;13.364;2023-07-16T04:30:48;21.60;99.90
5041;DHT22;2539;52.568;13.364;2023-07-16T04:33:14;21.60;99.90
5041;DHT22;2539;52.568;13.364;2023-07-16T04:35:40;21.50;99.90
5041;DHT22;2539;52.568;13.364;2023-07-16T04:38:07;21.60;99.90
5041;DHT22;2539;52.568;13.364;2023-07-16T04:40:34;21.50;99.90
5041;DHT22;2539;52.568;13.364;2023-07-16T04:43:00;21.50;99.90
5041;DHT22;2539;52.568;13.364;2023-07-16T04:45:26;21.50;99.90
5041;DHT22;2539;52.568;13.364;2023-07-16T04:47:52;21.40;99.90
5041;DHT22;2539;52.568;13.364;2023-07-16T04:50:19;21.30;99.90
5041;DHT22;2539;52.568;13.364;2023-07-16T04:52:45;21.30;99.90
5041;DHT22;2539;52.568;13.364;2023-07-16T04:55:11;21.30;99.90
5041;DHT22;2539;52.568;13.364;2023-07-16T04:57:38;21.30;99.90
5041;DHT22;2539;52.568;13.364;2023-07-16T05:00:05;21.30;99.90
5041;DHT22;2539;52.568;13.364;2023-07-16T05:02:32;21.30;99.90
5041;DHT22;2539;52.568;13.364;2023-07-16T05:04:59;21.30;99.90
5041;DHT22;2539;52.568;13.364;2023-07-16T05:07:25;21.30;99.90
5041;DHT22;2539;52.568;13.364;2023-07-16T05:09:51;21.40;99.90
5041;DHT22;2539;52.568;13.364;2023-07-16T05:12:17;21.40;99.90
5041;DHT22;2539;52.568;13.364;2023-07-16T05:14:45;21.50;99.90
5041;DHT22;2539;52.568;13.364;2023-07-16T05:17:12;21.60;99.90
5041;DHT22;2539;52.568;13.364;2023-07-16T05:19:39;21.70;99.90
5041;DHT22;2539;52.568;13.364;2023-07-16T05:22:05;21.80;99.90
5041;DHT22;2539;52.568;13.364;2023-07-16T05:24:32;22.00;99.90
5041;DHT22;2539;52.568;13.364;2023-07-16T05:26:58;22.10;99.90
5041;DHT22;2539;52.568;13.364;2023-07-16T05:29:24;22.30;99.90
5041;DHT22;2539;52.568;13.364;2023-07-16T05:31:51;22.50;99.90
5041;DHT22;2539;52.568;13.364;2023-07-16T05:34:17;22.70;99.90
5041;DHT22;2539;52.568;13.364;2023-07-16T05:36:43;22.80;99.90
5041;DHT22;2539;52.568;13.364;2023-07-16T05:39:12;22.90;99.90
5041;DHT22;2539;52.568;13.364;2023-07-16T05:41:40;23.00;99.90
5041;DHT22;2539;52.568;13.364;2023-07-16T05:44:07;22.80;99.90
5041;DHT22;2539;52.568;13.364;2023-07-16T05:46:34;22.70;99.90
5041;DHT22;2539;52.568;13.364;2023-07-16T05:49:00;22.60;99.90
5041;DHT22;2539;52.568;13.364;2023-07-16T05:51:27;22.40;99.90
5041;DHT22;2539;52.568;13.364;2023-07-16T05:53:53;22.40;99.90
5041;DHT22;2539;52.568;13.364;2023-07-16T05:56:19;22.20;99.90
5041;DHT22;2539;52.568;13.364;2023-07-16T05:58:45;22.20;99.90
5041;DHT22;2539;52.568;13.364;2023-07-16T06:01:12;22.10;99.90
5041;DHT22;2539;52.568;13.364;2023-07-16T06:03:38;22.10;99.90
5041;DHT22;2539;52.568;13.364;2023-07-16T06:06:04;22.20;99.90
5041;DHT22;2539;52.568;13.364;2023-07-16T06:08:31;22.20;99.90
5041;DHT22;2539;52.568;13.364;2023-07-16T06:10:57;22.30;99.90
5041;DHT22;2539;52.568;13.364;2023-07-16T06:13:23;22.30;99.90
5041;DHT22;2539;52.568;13.364;2023-07-16T06:15:49;22.40;99.90
5041;DHT22;2539;52.568;13.364;2023-07-16T06:18:16;22.40;99.90
5041;DHT22;2539;52.568;13.364;2023-07-16T06:20:45;22.50;99.90
5041;DHT22;2539;52.568;13.364;2023-07-16T06:23:11;22.50;99.90
5041;DHT22;2539;52.568;13.364;2023-07-16T06:25:37;22.50;99.90
5041;DHT22;2539;52.568;13.364;2023-07-16T06:28:04;22.60;99.90
5041;DHT22;2539;52.568;13.364;2023-07-16T06:30:30;22.70;99.90
5041;DHT22;2539;52.568;13.364;2023-07-16T06:32:59;22.70;99.90
5041;DHT22;2539;52.568;13.364;2023-07-16T06:35:25;22.80;99.90
5041;DHT22;2539;52.568;13.364;2023-07-16T06:37:51;22.90;99.90
5041;DHT22;2539;52.568;13.364;2023-07-16T06:40:18;22.90;99.90
5041;DHT22;2539;52.568;13.364;2023-07-16T06:42:44;23.00;99.90
5041;DHT22;2539;52.568;13.364;2023-07-16T06:45:10;23.00;99.90
5041;DHT22;2539;52.568;13.364;2023-07-16T06:47:37;23.10;99.90
5041;DHT22;2539;52.568;13.364;2023-07-16T06:50:03;23.10;99.90
5041;DHT22;2539;52.568;13.364;2023-07-16T06:52:29;23.00;99.90
5041;DHT22;2539;52.568;13.364;2023-07-16T06:54:57;23.20;99.90
5041;DHT22;2539;52.568;13.364;2023-07-16T06:57:23;23.70;99.90
5041;DHT22;2539;52.568;13.364;2023-07-16T06:59:49;24.20;99.90
5041;DHT22;2539;52.568;13.364;2023-07-16T07:02:17;24.60;99.90
5041;DHT22;2539;52.568;13.364;2023-07-16T07:04:43;24.90;99.90
5041;DHT22;2539;52.568;13.364;2023-07-16T07:07:09;25.00;99.90
5041;DHT22;2539;52.568;13.364;2023-07-16T07:09:36;24.80;99.90
5041;DHT22;2539;52.568;13.364;2023-07-16T07:12:02;24.60;99.90
5041;DHT22;2539;52.568;13.364;2023-07-16T07:14:29;24.50;99.90
5041;DHT22;2539;52.568;13.364;2023-07-16T07:16:55;23.80;99.90
5041;DHT22;2539;52.568;13.364;2023-07-16T07:19:21;23.90;99.90
5041;DHT22;2539;52.568;13.364;2023-07-16T07:21:47;24.10;99.90
5041;DHT22;2539;52.568;13.364;2023-07-16T07:24:14;24.00;99.90
5041;DHT22;2539;52.568;13.364;2023-07-16T07:26:40;24.00;99.90
5041;DHT22;2539;52.568;13.364;2023-07-16T07:29:06;24.00;99.90
5041;DHT22;2539;52.568;13.364;2023-07-16T07:31:32;24.20;99.90
5041;DHT22;2539;52.568;13.364;2023-07-16T07:33:59;24.40;99.90
5041;DHT22;2539;52.568;13.364;2023-07-16T07:36:25;24.50;99.90
5041;DHT22;2539;52.568;13.364;2023-07-16T07:38:51;24.90;99.90
5041;DHT22;2539;52.568;13.364;2023-07-16T07:41:18;25.20;99.90
5041;DHT22;2539;52.568;13.364;2023-07-16T07:43:44;25.20;99.90
5041;DHT22;2539;52.568;13.364;2023-07-16T07:46:11;25.10;99.90
5041;DHT22;2539;52.568;13.364;2023-07-16T07:48:37;24.90;99.90
5041;DHT22;2539;52.568;13.364;2023-07-16T07:51:04;24.90;99.90
5041;DHT22;2539;52.568;13.364;2023-07-16T07:53:30;24.60;99.90
5041;DHT22;2539;52.568;13.364;2023-07-16T07:55:56;24.60;99.90
5041;DHT22;2539;52.568;13.364;2023-07-16T07:58:23;24.10;99.90
5041;DHT22;2539;52.568;13.364;2023-07-16T08:00:49;23.90;99.90
5041;DHT22;2539;52.568;13.364;2023-07-16T08:03:15;24.00;99.90
5041;DHT22;2539;52.568;13.364;2023-07-16T08:05:41;24.10;99.90
5041;DHT22;2539;52.568;13.364;2023-07-16T08:08:08;24.30;99.90
5041;DHT22;2539;52.568;13.364;2023-07-16T08:10:34;24.60;99.90
5041;DHT22;2539;52.568;13.364;2023-07-16T08:13:00;24.60;99.90
5041;DHT22;2539;52.568;13.364;2023-07-16T08:15:26;24.50;99.90
5041;DHT22;2539;52.568;13.364;2023-07-16T08:17:53;24.50;99.90
5041;DHT22;2539;52.568;13.364;2023-07-16T08:20:20;23.90;99.90
5041;DHT22;2539;52.568;13.364;2023-07-16T08:22:46;23.80;99.90
5041;DHT22;2539;52.568;13.364;2023-07-16T08:25:12;23.90;99.90
5041;DHT22;2539;52.568;13.364;2023-07-16T08:27:38;23.90;99.90
5041;DHT22;2539;52.568;13.364;2023-07-16T08:30:05;24.10;99.90
5041;DHT22;2539;52.568;13.364;2023-07-16T08:32:32;24.30;99.90
5041;DHT22;2539;52.568;13.364;2023-07-16T08:34:58;24.30;99.90
5041;DHT22;2539;52.568;13.364;2023-07-16T08:37:24;24.50;99.90
5041;DHT22;2539;52.568;13.364;2023-07-16T08:39:53;24.70;99.90
5041;DHT22;2539;52.568;13.364;2023-07-16T08:42:19;25.00;99.90
5041;DHT22;2539;52.568;13.364;2023-07-16T08:44:45;25.10;99.90
5041;DHT22;2539;52.568;13.364;2023-07-16T08:47:11;25.20;99.90
5041;DHT22;2539;52.568;13.364;2023-07-16T08:49:39;25.40;99.90
5041;DHT22;2539;52.568;13.364;2023-07-16T08:52:06;25.50;99.90
5041;DHT22;2539;52.568;13.364;2023-07-16T08:54:33;25.00;99.90
5041;DHT22;2539;52.568;13.364;2023-07-16T08:56:59;25.00;99.90
5041;DHT22;2539;52.568;13.364;2023-07-16T08:59:26;24.90;99.90
5041;DHT22;2539;52.568;13.364;2023-07-16T09:01:53;24.90;99.90
5041;DHT22;2539;52.568;13.364;2023-07-16T09:04:19;24.80;99.90
5041;DHT22;2539;52.568;13.364;2023-07-16T09:06:46;25.10;99.90
5041;DHT22;2539;52.568;13.364;2023-07-16T09:09:22;25.10;99.90
5041;DHT22;2539;52.568;13.364;2023-07-16T09:11:50;24.70;99.90
5041;DHT22;2539;52.568;13.364;2023-07-16T09:14:17;24.60;99.90
5041;DHT22;2539;52.568;13.364;2023-07-16T09:16:53;24.50;99.90
5041;DHT22;2539;52.568;13.364;2023-07-16T09:19:19;24.50;99.90
5041;DHT22;2539;52.568;13.364;2023-07-16T09:21:51;24.70;99.90
5041;DHT22;2539;52.568;13.364;2023-07-16T09:24:18;25.10;99.90
5041;DHT22;2539;52.568;13.364;2023-07-16T09:26:48;25.40;99.90
5041;DHT22;2539;52.568;13.364;2023-07-16T09:29:15;25.40;99.90
5041;DHT22;2539;52.568;13.364;2023-07-16T09:32:01;25.30;99.90
5041;DHT22;2539;52.568;13.364;2023-07-16T09:34:31;25.30;99.90
5041;DHT22;2539;52.568;13.364;2023-07-16T09:36:59;25.20;99.90
5041;DHT22;2539;52.568;13.364;2023-07-16T09:39:27;25.10;99.90
5041;DHT22;2539;52.568;13.364;2023-07-16T09:41:53;25.00;99.90
5041;DHT22;2539;52.568;13.364;2023-07-16T09:44:20;25.00;99.90
5041;DHT22;2539;52.568;13.364;2023-07-16T09:46:46;24.90;99.90
5041;DHT22;2539;52.568;13.364;2023-07-16T09:49:15;25.10;99.90
5041;DHT22;2539;52.568;13.364;2023-07-16T09:51:43;25.30;99.90
5041;DHT22;2539;52.568;13.364;2023-07-16T09:54:13;25.50;99.90
5041;DHT22;2539;52.568;13.364;2023-07-16T09:56:49;25.50;99.90
5041;DHT22;2539;52.568;13.364;2023-07-16T09:59:19;25.30;99.90
5041;DHT22;2539;52.568;13.364;2023-07-16T10:01:46;25.50;99.90
5041;DHT22;2539;52.568;13.364;2023-07-16T10:04:17;25.50;99.90
5041;DHT22;2539;52.568;13.364;2023-07-16T10:06:58;25.50;99.90
5041;DHT22;2539;52.568;13.364;2023-07-16T10:09:36;25.80;99.90
5041;DHT22;2539;52.568;13.364;2023-07-16T10:12:19;25.60;99.90
5041;DHT22;2539;52.568;13.364;2023-07-16T10:14:53;25.90;99.90
5041;DHT22;2539;52.568;13.364;2023-07-16T10:17:21;26.10;99.90
5041;DHT22;2539;52.568;13.364;2023-07-16T10:19:57;26.10;99.90
5041;DHT22;2539;52.568;13.364;2023-07-16T10:22:40;26.00;99.90
5041;DHT22;2539;52.568;13.364;2023-07-16T10:27:49;25.60;99.90
5041;DHT22;2539;52.568;13.364;2023-07-16T10:30:16;25.70;99.90
5041;DHT22;2539;52.568;13.364;2023-07-16T10:32:44;25.80;99.90
5041;DHT22;2539;52.568;13.364;2023-07-16T10:35:10;25.70;99.90
5041;DHT22;2539;52.568;13.364;2023-07-16T10:37:37;25.60;99.90
5041;DHT22;2539;52.568;13.364;2023-07-16T10:40:05;25.60;99.90
5041;DHT22;2539;52.568;13.364;2023-07-16T10:42:32;25.70;99.90
5041;DHT22;2539;52.568;13.364;2023-07-16T10:45:00;25.50;99.90
5041;DHT22;2539;52.568;13.364;2023-07-16T10:47:34;25.50;99.90
5041;DHT22;2539;52.568;13.364;2023-07-16T10:50:03;25.50;99.90
5041;DHT22;2539;52.568;13.364;2023-07-16T10:52:30;25.80;99.90
5041;DHT22;2539;52.568;13.364;2023-07-16T10:54:56;25.70;99.90
5041;DHT22;2539;52.568;13.364;2023-07-16T10:57:25;25.90;99.90
5041;DHT22;2539;52.568;13.364;2023-07-16T10:59:52;25.90;99.90
5041;DHT22;2539;52.568;13.364;2023-07-16T11:02:21;26.20;99.90
5041;DHT22;2539;52.568;13.364;2023-07-16T11:04:48;26.50;99.90
5041;DHT22;2539;52.568;13.364;2023-07-16T11:07:15;26.50;99.80
5041;DHT22;2539;52.568;13.364;2023-07-16T11:09:43;26.30;99.90
5041;DHT22;2539;52.568;13.364;2023-07-16T11:12:12;26.30;99.90
5041;DHT22;2539;52.568;13.364;2023-07-16T11:14:43;26.40;99.90
5041;DHT22;2539;52.568;13.364;2023-07-16T11:17:10;26.60;99.90
5041;DHT22;2539;52.568;13.364;2023-07-16T11:19:37;26.80;99.70
5041;DHT22;2539;52.568;13.364;2023-07-16T11:22:05;26.70;99.70
5041;DHT22;2539;52.568;13.364;2023-07-16T11:24:47;26.80;99.60
5041;DHT22;2539;52.568;13.364;2023-07-16T11:29:52;27.00;99.10
5041;DHT22;2539;52.568;13.364;2023-07-16T11:32:42;27.20;99.10
5041;DHT22;2539;52.568;13.364;2023-07-16T11:35:15;27.30;98.80
5041;DHT22;2539;52.568;13.364;2023-07-16T11:37:42;27.10;98.10
5041;DHT22;2539;52.568;13.364;2023-07-16T11:40:09;27.00;98.40
5041;DHT22;2539;52.568;13.364;2023-07-16T11:42:38;27.20;98.50
5041;DHT22;2539;52.568;13.364;2023-07-16T11:45:24;27.00;98.80
5041;DHT22;2539;52.568;13.364;2023-07-16T11:47:54;27.30;98.60
5041;DHT22;2539;52.568;13.364;2023-07-16T11:50:20;27.80;98.50
5041;DHT22;2539;52.568;13.364;2023-07-16T11:52:54;28.00;96.80
5041;DHT22;2539;52.568;13.364;2023-07-16T11:55:20;27.60;95.80
5041;DHT22;2539;52.568;13.364;2023-07-16T11:57:46;27.50;96.20
5041;DHT22;2539;52.568;13.364;2023-07-16T12:00:13;27.60;96.90
5041;DHT22;2539;52.568;13.364;2023-07-16T12:02:39;26.90;97.60
5041;DHT22;2539;52.568;13.364;2023-07-16T12:05:06;27.00;97.30
5041;DHT22;2539;52.568;13.364;2023-07-16T12:07:35;26.90;96.90
5041;DHT22;2539;52.568;13.364;2023-07-16T12:10:06;27.20;96.90
5041;DHT22;2539;52.568;13.364;2023-07-16T12:12:33;27.20;96.90
5041;DHT22;2539;52.568;13.364;2023-07-16T12:15:08;27.30;94.50
5041;DHT22;2539;52.568;13.364;2023-07-16T12:17:34;27.40;95.00
5041;DHT22;2539;52.568;13.364;2023-07-16T12:20:03;27.80;94.70
5041;DHT22;2539;52.568;13.364;2023-07-16T12:22:30;28.00;93.40
5041;DHT22;2539;52.568;13.364;2023-07-16T12:24:56;28.00;92.00
5041;DHT22;2539;52.568;13.364;2023-07-16T12:27:22;27.60;92.10
5041;DHT22;2539;52.568;13.364;2023-07-16T12:29:48;27.20;91.90
5041;DHT22;2539;52.568;13.364;2023-07-16T12:32:14;27.00;92.30
5041;DHT22;2539;52.568;13.364;2023-07-16T12:34:40;27.00;90.80
5041;DHT22;2539;52.568;13.364;2023-07-16T12:37:06;27.10;90.80
5041;DHT22;2539;52.568;13.364;2023-07-16T12:39:33;27.50;90.70
5041;DHT22;2539;52.568;13.364;2023-07-16T12:41:59;27.70;90.00
5041;DHT22;2539;52.568;13.364;2023-07-16T12:44:25;27.80;88.40
5041;DHT22;2539;52.568;13.364;2023-07-16T12:46:51;27.90;86.20
5041;DHT22;2539;52.568;13.364;2023-07-16T12:49:18;27.40;84.20
5041;DHT22;2539;52.568;13.364;2023-07-16T12:51:43;27.50;86.30
5041;DHT22;2539;52.568;13.364;2023-07-16T12:54:09;27.70;86.00
5041;DHT22;2539;52.568;13.364;2023-07-16T12:56:35;27.80;86.00
5041;DHT22;2539;52.568;13.364;2023-07-16T12:59:02;27.90;84.80
5041;DHT22;2539;52.568;13.364;2023-07-16T13:01:28;28.00;85.10
5041;DHT22;2539;52.568;13.364;2023-07-16T13:03:54;28.00;83.90
5041;DHT22;2539;52.568;13.364;2023-07-16T13:06:21;28.00;84.70
5041;DHT22;2539;52.568;13.364;2023-07-16T13:08:48;28.00;84.90
5041;DHT22;2539;52.568;13.364;2023-07-16T13:11:14;27.70;85.30
5041;DHT22;2539;52.568;13.364;2023-07-16T13:13:40;27.50;86.40
5041;DHT22;2539;52.568;13.364;2023-07-16T13:16:08;27.60;85.60
5041;DHT22;2539;52.568;13.364;2023-07-16T13:18:34;27.60;85.20
5041;DHT22;2539;52.568;13.364;2023-07-16T13:21:00;28.00;84.80
5041;DHT22;2539;52.568;13.364;2023-07-16T13:23:27;28.10;83.30
5041;DHT22;2539;52.568;13.364;2023-07-16T13:25:53;27.90;83.10
5041;DHT22;2539;52.568;13.364;2023-07-16T13:28:20;28.20;84.50
5041;DHT22;2539;52.568;13.364;2023-07-16T13:30:47;28.60;83.90
5041;DHT22;2539;52.568;13.364;2023-07-16T13:33:13;28.70;84.10
5041;DHT22;2539;52.568;13.364;2023-07-16T13:35:40;28.10;83.00
5041;DHT22;2539;52.568;13.364;2023-07-16T13:38:05;27.80;83.00
5041;DHT22;2539;52.568;13.364;2023-07-16T13:40:31;27.70;84.50
5041;DHT22;2539;52.568;13.364;2023-07-16T13:42:56;27.80;84.70
5041;DHT22;2539;52.568;13.364;2023-07-16T13:45:22;27.90;84.00
5041;DHT22;2539;52.568;13.364;2023-07-16T13:47:49;27.90;83.50
5041;DHT22;2539;52.568;13.364;2023-07-16T13:50:18;27.60;84.80
5041;DHT22;2539;52.568;13.364;2023-07-16T13:52:44;28.00;84.60
5041;DHT22;2539;52.568;13.364;2023-07-16T13:55:10;28.50;83.50
5041;DHT22;2539;52.568;13.364;2023-07-16T13:57:36;28.80;83.30
5041;DHT22;2539;52.568;13.364;2023-07-16T14:00:03;28.90;82.70
5041;DHT22;2539;52.568;13.364;2023-07-16T14:02:30;28.90;81.10
5041;DHT22;2539;52.568;13.364;2023-07-16T14:04:57;28.90;82.90
5041;DHT22;2539;52.568;13.364;2023-07-16T14:07:23;28.60;80.20
5041;DHT22;2539;52.568;13.364;2023-07-16T14:09:49;28.30;81.20
5041;DHT22;2539;52.568;13.364;2023-07-16T14:12:15;27.70;82.30
5041;DHT22;2539;52.568;13.364;2023-07-16T14:14:41;27.70;82.50
5041;DHT22;2539;52.568;13.364;2023-07-16T14:17:06;27.80;82.50
5041;DHT22;2539;52.568;13.364;2023-07-16T14:19:33;28.00;81.00
5041;DHT22;2539;52.568;13.364;2023-07-16T14:21:59;28.10;81.10
5041;DHT22;2539;52.568;13.364;2023-07-16T14:24:25;28.40;81.50
5041;DHT22;2539;52.568;13.364;2023-07-16T14:26:52;28.70;79.80
5041;DHT22;2539;52.568;13.364;2023-07-16T14:29:18;29.20;79.90
5041;DHT22;2539;52.568;13.364;2023-07-16T14:31:44;28.70;76.60
5041;DHT22;2539;52.568;13.364;2023-07-16T14:34:10;28.60;77.30
5041;DHT22;2539;52.568;13.364;2023-07-16T14:36:36;28.70;77.60
5041;DHT22;2539;52.568;13.364;2023-07-16T14:39:01;29.20;78.20
5041;DHT22;2539;52.568;13.364;2023-07-16T14:41:27;29.70;77.00
5041;DHT22;2539;52.568;13.364;2023-07-16T14:43:54;30.00;76.10
5041;DHT22;2539;52.568;13.364;2023-07-16T14:46:20;29.90;76.80
5041;DHT22;2539;52.568;13.364;2023-07-16T14:48:46;29.60;76.40
5041;DHT22;2539;52.568;13.364;2023-07-16T14:51:13;29.70;75.70
5041;DHT22;2539;52.568;13.364;2023-07-16T14:53:39;30.10;75.60
5041;DHT22;2539;52.568;13.364;2023-07-16T14:56:05;31.00;74.90
5041;DHT22;2539;52.568;13.364;2023-07-16T14:58:33;31.70;73.00
5041;DHT22;2539;52.568;13.364;2023-07-16T15:01:03;32.20;71.00
5041;DHT22;2539;52.568;13.364;2023-07-16T15:03:37;32.40;70.00
5041;DHT22;2539;52.568;13.364;2023-07-16T15:06:04;32.70;69.60
5041;DHT22;2539;52.568;13.364;2023-07-16T15:08:30;32.60;67.90
5041;DHT22;2539;52.568;13.364;2023-07-16T15:10:58;32.50;67.50
5041;DHT22;2539;52.568;13.364;2023-07-16T15:13:25;32.50;66.10
5041;DHT22;2539;52.568;13.364;2023-07-16T15:15:54;32.20;65.20
5041;DHT22;2539;52.568;13.364;2023-07-16T15:18:20;32.50;66.80
5041;DHT22;2539;52.568;13.364;2023-07-16T15:20:48;32.10;66.00
5041;DHT22;2539;52.568;13.364;2023-07-16T15:23:14;31.20;66.50
5041;DHT22;2539;52.568;13.364;2023-07-16T15:25:41;30.60;68.80
5041;DHT22;2539;52.568;13.364;2023-07-16T15:28:11;30.10;69.00
5041;DHT22;2539;52.568;13.364;2023-07-16T15:30:38;29.50;70.20
5041;DHT22;2539;52.568;13.364;2023-07-16T15:33:04;29.70;69.50
5041;DHT22;2539;52.568;13.364;2023-07-16T15:35:30;30.50;69.60
5041;DHT22;2539;52.568;13.364;2023-07-16T15:37:57;30.80;66.70
5041;DHT22;2539;52.568;13.364;2023-07-16T15:40:25;30.60;68.20
5041;DHT22;2539;52.568;13.364;2023-07-16T15:42:52;30.40;68.30
5041;DHT22;2539;52.568;13.364;2023-07-16T15:45:19;30.00;68.20
5041;DHT22;2539;52.568;13.364;2023-07-16T15:47:46;29.60;68.60
5041;DHT22;2539;52.568;13.364;2023-07-16T15:50:12;29.40;69.20